createdAt,value
2018-08-10T00:00:00.345Z,64.59
2018-08-10T00:01:00.375Z,64.69
2018-08-10T00:02:00.401Z,64.40
2018-08-10T00:03:00.414Z,65.08
2018-08-10T00:04:00.433Z,65.24
2018-08-10T00:05:00.464Z,65.56
2018-08-10T00:06:00.486Z,65.17
2018-08-10T00:07:00.512Z,65.17
2018-08-10T00:09:00.625Z,65.27
2018-08-10T00:10:00.580Z,65.08
2018-08-10T00:11:00.616Z,65.91
2018-08-10T00:12:00.638Z,65.37
2018-08-10T00:13:00.658Z,65.37
2018-08-10T00:14:00.682Z,65.17
2018-08-10T00:15:00.702Z,64.66
2018-08-10T00:16:00.732Z,64.89
2018-08-10T00:17:00.779Z,65.53
2018-08-10T00:18:00.780Z,64.95
2018-08-10T00:19:00.807Z,65.24
2018-08-10T00:20:00.829Z,64.86
2018-08-10T00:21:00.859Z,63.92
2018-08-10T00:22:00.873Z,64.76
2018-08-10T00:23:00.901Z,64.28
2018-08-10T00:25:00.944Z,65.53
2018-08-10T00:26:00.975Z,65.69
2018-08-10T00:27:00.997Z,65.43
2018-08-10T00:28:01.031Z,65.14
2018-08-10T00:29:01.050Z,64.98
2018-08-10T00:30:01.076Z,64.28
2018-08-10T00:31:01.092Z,64.40
2018-08-10T00:32:01.123Z,64.40
2018-08-10T00:33:01.145Z,64.56
2018-08-10T00:34:01.183Z,64.95
2018-08-10T00:35:01.196Z,64.76
2018-08-10T00:36:01.226Z,64.95
2018-08-10T00:37:01.237Z,64.18
2018-08-10T00:38:01.275Z,64.47
2018-08-10T00:39:01.302Z,64.28
2018-08-10T00:40:01.318Z,64.18
2018-08-10T00:41:01.349Z,64.08
2018-08-10T00:42:01.365Z,64.37
2018-08-10T00:43:01.387Z,64.28
2018-08-10T00:44:01.423Z,64.47
2018-08-10T00:45:01.436Z,64.18
2018-08-10T00:46:01.457Z,64.37
2018-08-10T00:47:01.481Z,63.89
2018-08-10T00:48:01.503Z,64.18
2018-08-10T00:49:01.525Z,64.66
2018-08-10T00:50:01.567Z,63.98
2018-08-10T00:51:01.583Z,64.18
2018-08-10T00:52:01.621Z,64.66
2018-08-10T00:53:01.628Z,64.15
2018-08-10T00:54:01.731Z,64.18
2018-08-10T00:55:01.693Z,65.30
2018-08-10T00:56:01.712Z,64.92
2018-08-10T00:57:01.733Z,63.95
2018-08-10T00:58:01.746Z,65.01
2018-08-10T00:59:01.771Z,64.47
2018-08-10T01:00:01.799Z,64.05
2018-08-10T01:01:01.819Z,64.43
2018-08-10T01:02:01.860Z,64.63
2018-08-10T01:03:01.876Z,64.72
2018-08-10T01:04:01.886Z,64.53
2018-08-10T01:05:01.921Z,64.72
2018-08-10T01:06:01.941Z,64.15
2018-08-10T01:07:01.963Z,64.79
2018-08-10T01:08:01.999Z,64.59
2018-08-10T01:10:02.041Z,64.98
2018-08-10T01:11:02.070Z,64.11
2018-08-10T01:12:02.078Z,63.95
2018-08-10T01:13:02.228Z,64.59
2018-08-10T01:14:02.125Z,64.59
2018-08-10T01:15:02.157Z,65.08
2018-08-10T01:16:02.177Z,65.08
2018-08-10T01:17:02.203Z,64.50
2018-08-10T01:19:02.287Z,64.40
2018-08-10T01:20:02.273Z,64.21
2018-08-10T01:21:02.299Z,63.92
2018-08-10T01:22:02.340Z,63.63
2018-08-10T01:23:02.344Z,64.11
2018-08-10T01:24:02.362Z,63.57
2018-08-10T01:25:02.395Z,63.82
2018-08-10T01:26:02.414Z,64.50
2018-08-10T01:28:02.465Z,64.40
2018-08-10T01:29:02.811Z,64.11
2018-08-10T01:30:02.524Z,63.44
2018-08-10T01:32:02.556Z,63.37
2018-08-10T01:33:02.582Z,63.24
2018-08-10T01:34:02.607Z,64.08
2018-08-10T01:35:02.634Z,63.73
2018-08-10T01:36:02.644Z,64.21
2018-08-10T01:37:02.683Z,63.63
2018-08-10T01:38:02.704Z,64.21
2018-08-10T01:39:02.725Z,63.73
2018-08-10T01:40:02.753Z,63.92
2018-08-10T01:41:02.784Z,63.92
2018-08-10T01:42:02.796Z,63.89
2018-08-10T01:43:02.833Z,63.63
2018-08-10T01:44:02.852Z,63.82
2018-08-10T01:45:02.861Z,64.02
2018-08-10T01:46:02.895Z,63.06
2018-08-10T01:47:02.911Z,63.50
2018-08-10T01:48:02.938Z,63.54
2018-08-10T01:49:02.968Z,64.18
2018-08-10T01:50:02.984Z,63.70
2018-08-10T01:51:03.013Z,63.54
2018-08-10T01:52:03.072Z,63.24
2018-08-10T01:53:03.052Z,62.70
2018-08-10T01:54:03.090Z,62.48
2018-08-10T01:55:03.105Z,63.24
2018-08-10T01:56:03.128Z,63.24
2018-08-10T01:57:03.215Z,63.82
2018-08-10T01:58:03.209Z,63.63
2018-08-10T01:59:03.212Z,63.44
2018-08-10T02:00:03.225Z,63.60
2018-08-10T02:01:03.243Z,63.98
2018-08-10T02:02:03.276Z,63.98
2018-08-10T02:03:03.293Z,63.98
2018-08-10T02:04:03.311Z,64.18
2018-08-10T02:05:03.331Z,64.08
2018-08-10T02:06:03.360Z,63.98
2018-08-10T02:07:03.386Z,65.05
2018-08-10T02:08:03.413Z,64.47
2018-08-10T02:09:03.434Z,64.47
2018-08-10T02:10:03.451Z,64.95
2018-08-10T02:11:03.478Z,65.14
2018-08-10T02:13:03.521Z,64.28
2018-08-10T02:14:03.542Z,64.95
2018-08-10T02:15:03.595Z,64.86
2018-08-10T02:16:03.598Z,65.20
2018-08-10T02:17:03.611Z,65.24
2018-08-10T02:18:03.639Z,64.66
2018-08-10T02:19:03.661Z,64.76
2018-08-10T02:20:03.686Z,65.05
2018-08-10T02:21:03.709Z,64.28
2018-08-10T02:22:03.733Z,64.76
2018-08-10T02:23:03.750Z,64.53
2018-08-10T02:24:03.777Z,64.76
2018-08-10T02:25:03.799Z,64.76
2018-08-10T02:26:03.825Z,64.86
2018-08-10T02:27:03.938Z,64.56
2018-08-10T02:28:03.866Z,64.86
2018-08-10T02:30:03.920Z,64.76
2018-08-10T02:31:03.956Z,64.47
2018-08-10T02:32:03.977Z,64.18
2018-08-10T02:33:03.994Z,63.79
2018-08-10T02:34:04.005Z,64.76
2018-08-10T02:35:04.032Z,64.28
2018-08-10T02:36:04.064Z,64.76
2018-08-10T02:37:04.080Z,64.47
2018-08-10T02:38:04.099Z,64.86
2018-08-10T02:39:04.128Z,64.76
2018-08-10T02:40:04.153Z,65.53
2018-08-10T02:41:04.170Z,65.24
2018-08-10T02:42:04.202Z,65.24
2018-08-10T02:43:04.222Z,65.43
2018-08-10T02:44:04.242Z,65.63
2018-08-10T02:45:04.267Z,65.24
2018-08-10T02:47:04.327Z,65.81
2018-08-10T02:48:04.329Z,66.20
2018-08-10T02:49:04.361Z,65.53
2018-08-10T02:50:04.388Z,65.63
2018-08-10T02:51:25.422Z,65.24
2018-08-10T02:52:04.430Z,65.43
2018-08-10T02:53:04.456Z,65.43
2018-08-10T02:54:04.475Z,65.81
2018-08-10T02:55:04.498Z,65.53
2018-08-10T02:56:04.571Z,65.88
2018-08-10T02:57:04.540Z,66.30
2018-08-10T02:58:04.579Z,67.33
2018-08-10T02:59:04.591Z,67.33
2018-08-10T03:00:04.610Z,67.33
2018-08-10T03:01:04.645Z,66.27
2018-08-10T03:02:04.665Z,67.23
2018-08-10T03:03:04.692Z,67.33
2018-08-10T03:04:04.714Z,66.75
2018-08-10T03:05:04.725Z,67.13
2018-08-10T03:06:04.760Z,67.03
2018-08-10T03:08:04.800Z,67.33
2018-08-10T03:09:04.823Z,66.85
2018-08-10T03:10:04.846Z,66.36
2018-08-10T03:11:04.877Z,66.94
2018-08-10T03:12:04.893Z,66.78
2018-08-10T03:13:04.917Z,67.13
2018-08-10T03:14:04.937Z,66.49
2018-08-10T03:15:04.971Z,66.36
2018-08-10T03:16:04.992Z,67.71
2018-08-10T03:17:05.005Z,68.06
2018-08-10T03:18:05.046Z,68.26
2018-08-10T03:20:05.078Z,67.90
2018-08-10T03:21:05.098Z,67.90
2018-08-10T03:22:05.130Z,67.81
2018-08-10T03:23:05.144Z,67.61
2018-08-10T03:24:05.182Z,67.61
2018-08-10T03:25:05.187Z,67.71
2018-08-10T03:26:05.220Z,67.52
2018-08-10T03:27:05.234Z,67.52
2018-08-10T03:28:05.256Z,67.90
2018-08-10T03:29:05.284Z,67.52
2018-08-10T03:30:05.304Z,67.52
2018-08-10T03:32:05.348Z,67.71
2018-08-10T03:33:05.379Z,67.71
2018-08-10T03:34:05.401Z,67.36
2018-08-10T03:35:05.422Z,67.07
2018-08-10T03:36:05.451Z,67.71
2018-08-10T03:37:05.470Z,67.81
2018-08-10T03:38:05.494Z,66.94
2018-08-10T03:39:05.523Z,67.07
2018-08-10T03:40:05.547Z,67.36
2018-08-10T03:41:05.557Z,66.59
2018-08-10T03:42:05.581Z,67.36
2018-08-10T03:43:05.606Z,68.00
2018-08-10T03:44:05.647Z,67.81
2018-08-10T03:45:05.652Z,68.58
2018-08-10T03:46:05.683Z,68.54
2018-08-10T03:47:05.699Z,68.19
2018-08-10T03:48:05.729Z,68.44
2018-08-10T03:49:05.750Z,68.68
2018-08-10T03:50:05.773Z,68.29
2018-08-10T03:51:05.802Z,68.38
2018-08-10T03:53:05.835Z,69.12
2018-08-10T03:54:05.859Z,68.44
2018-08-10T03:55:05.885Z,68.74
2018-08-10T03:56:05.916Z,68.58
2018-08-10T03:57:05.920Z,68.10
2018-08-10T03:58:05.972Z,68.29
2018-08-10T03:59:05.978Z,68.54
2018-08-10T04:00:06.005Z,68.19
2018-08-10T04:01:06.021Z,68.44
2018-08-10T04:02:06.047Z,68.44
2018-08-10T04:03:06.073Z,67.81
2018-08-10T04:04:06.091Z,67.81
2018-08-10T04:05:06.125Z,67.71
2018-08-10T04:06:06.142Z,67.61
2018-08-10T04:07:06.151Z,68.10
2018-08-10T04:08:06.185Z,68.10
2018-08-10T04:09:06.201Z,68.44
2018-08-10T04:10:06.224Z,68.06
2018-08-10T04:11:06.245Z,68.26
2018-08-10T04:12:06.393Z,68.93
2018-08-10T04:13:06.303Z,67.90
2018-08-10T04:14:06.315Z,68.19
2018-08-10T04:15:06.351Z,69.22
2018-08-10T04:16:06.378Z,69.02
2018-08-10T04:17:06.387Z,68.74
2018-08-10T04:18:06.420Z,69.02
2018-08-10T04:19:06.438Z,68.35
2018-08-10T04:20:06.461Z,68.35
2018-08-10T04:21:06.493Z,68.26
2018-08-10T04:22:06.507Z,68.48
2018-08-10T04:23:06.540Z,68.44
2018-08-10T04:24:06.551Z,68.26
2018-08-10T04:25:06.629Z,68.93
2018-08-10T04:26:06.597Z,69.22
2018-08-10T04:27:06.617Z,69.22
2018-08-10T04:28:06.655Z,69.60
2018-08-10T04:29:06.663Z,68.93
2018-08-10T04:30:06.696Z,68.54
2018-08-10T04:31:06.718Z,68.54
2018-08-10T04:32:06.732Z,68.64
2018-08-10T04:33:06.763Z,69.12
2018-08-10T04:34:06.776Z,69.22
2018-08-10T04:35:06.802Z,69.41
2018-08-10T04:36:06.831Z,68.93
2018-08-10T04:37:06.849Z,70.82
2018-08-10T04:38:06.868Z,70.56
2018-08-10T04:39:06.892Z,69.31
2018-08-10T04:40:06.917Z,69.95
2018-08-10T04:41:06.943Z,70.43
2018-08-10T04:42:06.962Z,70.53
2018-08-10T04:43:06.987Z,70.34
2018-08-10T04:44:07.007Z,71.17
2018-08-10T04:45:07.034Z,70.92
2018-08-10T04:46:07.062Z,71.26
2018-08-10T04:48:07.129Z,71.11
2018-08-10T04:49:07.128Z,71.26
2018-08-10T04:50:07.157Z,71.59
2018-08-10T04:51:07.170Z,70.62
2018-08-10T04:52:07.187Z,70.92
2018-08-10T04:53:07.219Z,70.18
2018-08-10T04:54:07.238Z,70.98
2018-08-10T04:55:07.316Z,71.42
2018-08-10T04:56:07.292Z,71.84
2018-08-10T04:57:07.303Z,72.03
2018-08-10T04:58:07.329Z,71.84
2018-08-10T04:59:07.348Z,72.03
2018-08-10T05:00:07.373Z,71.40
2018-08-10T05:01:07.399Z,70.62
2018-08-10T05:02:07.421Z,69.99
2018-08-10T05:03:07.447Z,70.15
2018-08-10T05:04:07.471Z,70.43
2018-08-10T05:05:07.485Z,70.72
2018-08-10T05:06:07.512Z,71.69
2018-08-10T05:07:07.535Z,71.01
2018-08-10T05:08:07.547Z,70.92
2018-08-10T05:09:07.577Z,69.76
2018-08-10T05:10:07.599Z,70.34
2018-08-10T05:11:07.624Z,70.72
2018-08-10T05:12:07.648Z,71.30
2018-08-10T05:13:07.666Z,71.20
2018-08-10T05:14:07.685Z,70.62
2018-08-10T05:15:07.717Z,70.53
2018-08-10T05:16:07.748Z,71.01
2018-08-10T05:17:07.761Z,69.89
2018-08-10T05:18:07.782Z,69.89
2018-08-10T05:19:07.801Z,70.43
2018-08-10T05:20:07.832Z,70.43
2018-08-10T05:21:07.861Z,70.72
2018-08-10T05:22:07.884Z,70.82
2018-08-10T05:23:07.889Z,71.11
2018-08-10T05:24:07.928Z,71.01
2018-08-10T05:25:07.949Z,69.95
2018-08-10T05:26:07.967Z,69.79
2018-08-10T05:27:07.986Z,70.15
2018-08-10T05:28:08.013Z,70.62
2018-08-10T05:29:08.041Z,70.43
2018-08-10T05:30:08.052Z,70.09
2018-08-10T05:31:08.072Z,70.05
2018-08-10T05:32:08.104Z,69.89
2018-08-10T05:33:08.126Z,70.15
2018-08-10T05:34:08.142Z,69.38
2018-08-10T05:35:08.167Z,70.62
2018-08-10T05:36:08.199Z,69.57
2018-08-10T05:37:08.215Z,69.99
2018-08-10T05:38:08.231Z,70.72
2018-08-10T05:39:08.257Z,70.53
2018-08-10T05:40:08.273Z,69.60
2018-08-10T05:41:08.302Z,69.89
2018-08-10T05:42:08.332Z,69.60
2018-08-10T05:43:08.352Z,70.15
2018-08-10T05:44:08.472Z,69.89
2018-08-10T05:45:08.390Z,69.51
2018-08-10T05:46:08.414Z,69.12
2018-08-10T05:47:08.456Z,69.22
2018-08-10T05:48:08.487Z,69.31
2018-08-10T05:49:08.486Z,69.60
2018-08-10T05:50:08.509Z,70.05
2018-08-10T05:51:08.549Z,71.40
2018-08-10T05:52:08.551Z,71.11
2018-08-10T05:53:08.573Z,70.56
2018-08-10T05:54:08.590Z,69.60
2018-08-10T05:55:08.624Z,69.22
2018-08-10T05:56:08.643Z,69.70
2018-08-10T05:57:08.726Z,69.31
2018-08-10T05:58:08.748Z,70.82
2018-08-10T05:59:08.708Z,70.82
2018-08-10T06:00:08.732Z,71.01
2018-08-10T06:01:08.783Z,70.15
2018-08-10T06:02:08.774Z,70.92
2018-08-10T06:03:08.796Z,70.72
2018-08-10T06:04:08.913Z,69.76
2018-08-10T06:05:08.844Z,69.95
2018-08-10T06:06:08.867Z,70.18
2018-08-10T06:07:08.897Z,69.31
2018-08-10T06:08:08.923Z,68.90
2018-08-10T06:09:08.934Z,69.22
2018-08-10T06:10:08.961Z,69.95
2018-08-10T06:11:08.982Z,69.85
2018-08-10T06:12:09.019Z,70.05
2018-08-10T06:13:09.052Z,69.67
2018-08-10T06:14:09.048Z,70.15
2018-08-10T06:15:09.075Z,70.43
2018-08-10T06:16:09.104Z,70.92
2018-08-10T06:17:09.119Z,70.88
2018-08-10T06:18:09.139Z,71.26
2018-08-10T06:19:09.161Z,71.40
2018-08-10T06:20:09.190Z,71.20
2018-08-10T06:21:09.340Z,69.89
2018-08-10T06:22:09.232Z,69.99
2018-08-10T06:24:09.275Z,69.67
2018-08-10T06:25:09.328Z,69.38
2018-08-10T06:26:09.321Z,69.95
2018-08-10T06:27:09.348Z,70.24
2018-08-10T06:28:09.395Z,69.76
2018-08-10T06:29:09.401Z,69.38
2018-08-10T06:30:09.409Z,69.09
2018-08-10T06:31:09.436Z,69.38
2018-08-10T06:32:09.454Z,69.38
2018-08-10T06:33:09.485Z,69.22
2018-08-10T06:34:09.513Z,69.02
2018-08-10T06:35:09.557Z,68.16
2018-08-10T06:36:09.552Z,67.29
2018-08-10T06:37:09.566Z,67.19
2018-08-10T06:38:09.606Z,67.49
2018-08-10T06:39:09.620Z,68.16
2018-08-10T06:40:09.637Z,68.54
2018-08-10T06:41:09.668Z,68.26
2018-08-10T06:42:09.684Z,67.39
2018-08-10T06:43:09.712Z,67.00
2018-08-10T06:44:09.731Z,67.10
2018-08-10T06:45:09.803Z,67.10
2018-08-10T06:46:09.780Z,66.24
2018-08-10T06:47:09.803Z,67.29
2018-08-10T06:48:09.851Z,67.03
2018-08-10T06:49:09.857Z,67.13
2018-08-10T06:50:09.930Z,65.40
2018-08-10T06:51:09.968Z,65.59
2018-08-10T06:52:09.923Z,65.88
2018-08-10T06:53:09.966Z,65.50
2018-08-10T06:55:09.976Z,65.30
2018-08-10T06:56:10.079Z,64.82
2018-08-10T06:57:10.039Z,64.92
2018-08-10T06:58:10.061Z,64.28
2018-08-10T06:59:10.074Z,64.53
2018-08-10T07:00:10.097Z,65.11
2018-08-10T07:01:10.261Z,65.27
2018-08-10T07:02:10.157Z,64.82
2018-08-10T07:03:10.215Z,64.25
2018-08-10T07:04:10.196Z,63.85
2018-08-10T07:05:10.225Z,63.28
2018-08-10T07:06:10.243Z,63.47
2018-08-10T07:07:10.277Z,63.57
2018-08-10T07:08:10.286Z,64.05
2018-08-10T07:09:10.314Z,64.34
2018-08-10T07:10:10.330Z,63.60
2018-08-10T07:11:10.352Z,63.85
2018-08-10T07:12:10.384Z,63.85
2018-08-10T07:13:10.514Z,63.95
2018-08-10T07:14:10.426Z,63.89
2018-08-10T07:15:10.458Z,64.28
2018-08-10T07:16:10.472Z,64.28
2018-08-10T07:17:10.502Z,63.70
2018-08-10T07:18:10.530Z,63.76
2018-08-10T07:19:10.549Z,64.25
2018-08-10T07:20:10.566Z,64.53
2018-08-10T07:21:10.607Z,64.08
2018-08-10T07:22:10.615Z,63.98
2018-08-10T07:23:10.649Z,64.28
2018-08-10T07:24:10.662Z,63.60
2018-08-10T07:25:10.684Z,63.41
2018-08-10T07:26:10.711Z,63.02
2018-08-10T07:27:10.811Z,62.25
2018-08-10T07:28:10.772Z,61.58
2018-08-10T07:29:10.784Z,61.96
2018-08-10T07:30:10.805Z,62.15
2018-08-10T07:31:10.834Z,62.25
2018-08-10T07:32:10.853Z,61.87
2018-08-10T07:33:10.883Z,62.06
2018-08-10T07:34:10.911Z,62.35
2018-08-10T07:35:10.963Z,62.15
2018-08-10T07:36:10.951Z,63.31
2018-08-10T07:37:10.974Z,63.09
2018-08-10T07:38:11.006Z,63.09
2018-08-10T07:39:11.023Z,62.45
2018-08-10T07:40:11.041Z,62.25
2018-08-10T07:41:11.069Z,62.45
2018-08-10T07:42:11.095Z,62.25
2018-08-10T07:43:11.112Z,62.54
2018-08-10T07:44:11.150Z,62.93
2018-08-10T07:45:11.163Z,62.63
2018-08-10T07:46:11.195Z,62.76
2018-08-10T07:47:11.206Z,62.45
2018-08-10T07:48:11.230Z,62.38
2018-08-10T07:49:11.261Z,62.48
2018-08-10T07:50:11.291Z,62.57
2018-08-10T07:51:11.305Z,62.38
2018-08-10T07:52:11.365Z,62.25
2018-08-10T07:53:11.357Z,62.35
2018-08-10T07:54:11.378Z,62.54
2018-08-10T07:55:11.401Z,62.06
2018-08-10T07:56:11.423Z,61.87
2018-08-10T07:57:11.451Z,61.77
2018-08-10T07:58:11.476Z,61.77
2018-08-10T07:59:11.564Z,61.10
2018-08-10T08:00:11.529Z,60.42
2018-08-10T08:01:11.545Z,60.71
2018-08-10T08:02:11.571Z,61.38
2018-08-10T08:03:11.628Z,61.29
2018-08-10T08:04:11.619Z,61.87
2018-08-10T08:05:11.642Z,61.38
2018-08-10T08:06:11.679Z,61.58
2018-08-10T08:07:11.688Z,61.77
2018-08-10T08:08:11.711Z,60.90
2018-08-10T08:09:11.735Z,60.61
2018-08-10T08:10:11.763Z,59.84
2018-08-10T08:11:11.790Z,59.65
2018-08-10T08:12:11.816Z,59.65
2018-08-10T08:13:11.837Z,58.97
2018-08-10T08:14:11.853Z,59.07
2018-08-10T08:15:11.878Z,59.75
2018-08-10T08:16:11.907Z,59.20
2018-08-10T08:17:11.926Z,60.13
2018-08-10T08:18:11.954Z,60.13
2018-08-10T08:19:11.972Z,60.03
2018-08-10T08:20:12.006Z,61.10
2018-08-10T08:21:12.040Z,61.00
2018-08-10T08:22:12.047Z,60.71
2018-08-10T08:23:12.069Z,61.00
2018-08-10T08:24:12.111Z,61.10
2018-08-10T08:25:12.117Z,61.22
2018-08-10T08:26:12.141Z,60.71
2018-08-10T08:27:12.273Z,60.55
2018-08-10T08:28:12.196Z,59.78
2018-08-10T08:29:12.252Z,60.06
2018-08-10T08:30:12.237Z,60.74
2018-08-10T08:31:12.264Z,60.61
2018-08-10T08:32:12.288Z,60.90
2018-08-10T08:33:12.324Z,60.06
2018-08-10T08:34:12.339Z,59.68
2018-08-10T08:35:12.465Z,59.10
2018-08-10T08:36:12.388Z,59.68
2018-08-10T08:37:12.407Z,59.20
2018-08-10T08:38:12.486Z,58.91
2018-08-10T08:39:12.453Z,58.23
2018-08-10T08:40:12.480Z,57.78
2018-08-10T08:41:12.498Z,57.01
2018-08-10T08:42:12.524Z,56.91
2018-08-10T08:43:12.570Z,57.01
2018-08-10T08:44:12.575Z,56.98
2018-08-10T08:45:12.597Z,57.59
2018-08-10T08:46:12.816Z,56.72
2018-08-10T08:47:12.648Z,57.07
2018-08-10T08:48:12.683Z,57.27
2018-08-10T08:49:12.693Z,57.27
2018-08-10T08:50:12.812Z,57.46
2018-08-10T08:51:12.741Z,57.37
2018-08-10T08:52:12.772Z,57.68
2018-08-10T08:53:12.795Z,57.78
2018-08-10T08:54:12.858Z,58.72
2018-08-10T08:55:12.843Z,59.58
2018-08-10T08:56:12.862Z,59.10
2018-08-10T08:57:12.894Z,57.37
2018-08-10T08:58:12.934Z,57.27
2018-08-10T08:59:12.934Z,57.94
2018-08-10T09:00:12.972Z,57.85
2018-08-10T09:01:13.003Z,57.56
2018-08-10T09:02:13.021Z,56.40
2018-08-10T09:03:13.036Z,56.88
2018-08-10T09:04:13.058Z,56.30
2018-08-10T09:05:13.117Z,56.59
2018-08-10T09:06:13.109Z,55.94
2018-08-10T09:07:13.142Z,55.56
2018-08-10T09:08:13.158Z,55.34
2018-08-10T09:09:13.189Z,55.46
2018-08-10T09:10:13.255Z,55.27
2018-08-10T09:11:13.227Z,55.36
2018-08-10T09:12:13.252Z,55.18
2018-08-10T09:13:13.278Z,55.56
2018-08-10T09:14:13.327Z,56.07
2018-08-10T09:15:13.323Z,55.66
2018-08-10T09:16:13.350Z,56.33
2018-08-10T09:17:13.494Z,55.56
2018-08-10T09:18:13.400Z,56.24
2018-08-10T09:19:13.431Z,55.54
2018-08-10T09:20:13.461Z,55.92
2018-08-10T09:21:13.473Z,55.34
2018-08-10T09:22:13.501Z,54.79
2018-08-10T09:23:13.543Z,54.31
2018-08-10T09:24:13.557Z,54.69
2018-08-10T09:25:13.575Z,54.40
2018-08-10T09:26:13.606Z,55.56
2018-08-10T09:27:13.617Z,56.33
2018-08-10T09:28:13.641Z,56.33
2018-08-10T09:29:13.667Z,55.68
2018-08-10T09:30:13.690Z,55.49
2018-08-10T09:31:13.725Z,55.56
2018-08-10T09:32:13.734Z,54.82
2018-08-10T09:33:13.766Z,55.10
2018-08-10T09:34:13.791Z,56.46
2018-08-10T09:35:13.814Z,57.52
2018-08-10T09:36:13.837Z,57.42
2018-08-10T09:37:13.860Z,57.81
2018-08-10T09:38:13.892Z,57.97
2018-08-10T09:39:13.916Z,57.90
2018-08-10T09:40:13.940Z,57.81
2018-08-10T09:41:13.953Z,58.19
2018-08-10T09:42:14.110Z,58.10
2018-08-10T09:43:14.032Z,58.00
2018-08-10T09:44:14.085Z,57.90
2018-08-10T09:45:14.121Z,57.97
2018-08-10T09:46:14.090Z,57.81
2018-08-10T09:47:14.109Z,57.49
2018-08-10T09:48:14.133Z,56.94
2018-08-10T09:49:14.161Z,57.23
2018-08-10T09:50:14.183Z,56.16
2018-08-10T09:51:14.211Z,54.62
2018-08-10T09:52:14.239Z,54.43
2018-08-10T09:53:14.253Z,53.08
2018-08-10T09:54:14.280Z,52.79
2018-08-10T09:55:14.296Z,52.79
2018-08-10T09:56:14.332Z,52.21
2018-08-10T09:57:14.349Z,52.31
2018-08-10T09:58:14.387Z,52.79
2018-08-10T09:59:14.407Z,52.91
2018-08-10T10:00:14.434Z,52.91
2018-08-10T10:01:14.458Z,52.31
2018-08-10T10:02:14.468Z,53.25
2018-08-10T10:03:14.498Z,54.21
2018-08-10T10:04:14.525Z,54.69
2018-08-10T10:05:14.557Z,54.24
2018-08-10T10:06:14.590Z,55.10
2018-08-10T10:07:14.605Z,55.68
2018-08-10T10:08:14.633Z,55.30
2018-08-10T10:09:14.650Z,55.42
2018-08-10T10:10:14.677Z,55.52
2018-08-10T10:11:14.704Z,55.52
2018-08-10T10:12:14.727Z,55.42
2018-08-10T10:13:14.753Z,55.52
2018-08-10T10:14:14.782Z,55.13
2018-08-10T10:15:14.795Z,54.94
2018-08-10T10:16:14.823Z,55.01
2018-08-10T10:17:14.851Z,55.20
2018-08-10T10:18:14.884Z,54.62
2018-08-10T10:19:14.900Z,54.53
2018-08-10T10:20:14.938Z,54.33
2018-08-10T10:21:14.952Z,54.27
2018-08-10T10:22:14.981Z,54.07
2018-08-10T10:23:15.008Z,53.78
2018-08-10T10:24:15.021Z,54.07
2018-08-10T10:25:15.052Z,52.62
2018-08-10T10:26:15.084Z,51.97
2018-08-10T10:27:15.117Z,51.87
2018-08-10T10:28:15.120Z,51.75
2018-08-10T10:29:15.157Z,51.17
2018-08-10T10:30:15.176Z,51.75
2018-08-10T10:31:15.203Z,51.37
2018-08-10T10:32:15.228Z,51.65
2018-08-10T10:33:15.258Z,51.39
2018-08-10T10:35:15.297Z,53.30
2018-08-10T10:36:15.326Z,53.42
2018-08-10T10:37:15.355Z,53.91
2018-08-10T10:38:15.389Z,53.61
2018-08-10T10:39:15.407Z,53.42
2018-08-10T10:40:15.425Z,53.52
2018-08-10T10:41:15.452Z,52.65
2018-08-10T10:42:15.486Z,52.84
2018-08-10T10:43:15.510Z,52.07
2018-08-10T10:44:15.547Z,51.29
2018-08-10T10:45:15.554Z,51.97
2018-08-10T10:46:15.579Z,51.49
2018-08-10T10:47:15.625Z,51.49
2018-08-10T10:48:15.633Z,51.39
2018-08-10T10:49:15.664Z,51.68
2018-08-10T10:50:15.684Z,51.59
2018-08-10T10:51:15.713Z,51.29
2018-08-10T10:52:15.749Z,51.59
2018-08-10T10:53:15.768Z,51.97
2018-08-10T10:54:15.784Z,51.32
2018-08-10T10:55:15.810Z,51.42
2018-08-10T10:56:15.879Z,51.03
2018-08-10T10:57:15.879Z,51.23
2018-08-10T10:58:15.887Z,50.07
2018-08-10T10:59:15.979Z,50.13
2018-08-10T11:00:15.936Z,50.26
2018-08-10T11:01:15.968Z,50.71
2018-08-10T11:02:15.992Z,50.35
2018-08-10T11:03:16.023Z,50.84
2018-08-10T11:04:16.039Z,50.93
2018-08-10T11:05:16.066Z,51.13
2018-08-10T11:06:16.100Z,51.01
2018-08-10T11:07:16.108Z,51.81
2018-08-10T11:08:16.149Z,51.59
2018-08-10T11:09:16.174Z,51.49
2018-08-10T11:10:16.198Z,51.59
2018-08-10T11:11:16.219Z,51.59
2018-08-10T11:12:16.247Z,51.78
2018-08-10T11:13:16.272Z,51.71
2018-08-10T11:14:16.295Z,51.03
2018-08-10T11:15:16.319Z,50.45
2018-08-10T11:16:16.354Z,50.74
2018-08-10T11:17:16.381Z,50.93
2018-08-10T11:18:16.400Z,49.99
2018-08-10T11:19:16.419Z,50.07
2018-08-10T11:20:16.460Z,50.45
2018-08-10T11:21:16.500Z,50.93
2018-08-10T11:22:16.534Z,50.84
2018-08-10T11:23:16.523Z,50.55
2018-08-10T11:24:16.557Z,50.45
2018-08-10T11:25:16.739Z,50.55
2018-08-10T11:26:16.600Z,50.45
2018-08-10T11:27:16.631Z,50.65
2018-08-10T11:28:16.663Z,50.18
2018-08-10T11:29:16.689Z,50.09
2018-08-10T11:31:16.745Z,48.44
2018-08-10T11:32:16.757Z,48.44
2018-08-10T11:33:16.785Z,48.64
2018-08-10T11:34:16.815Z,48.93
2018-08-10T11:35:16.835Z,48.81
2018-08-10T11:36:16.873Z,48.71
2018-08-10T11:37:16.903Z,48.64
2018-08-10T11:38:16.916Z,48.93
2018-08-10T11:39:16.941Z,48.44
2018-08-10T11:40:16.989Z,48.25
2018-08-10T11:41:17.004Z,48.61
2018-08-10T11:42:17.044Z,49.10
2018-08-10T11:43:17.048Z,49.51
2018-08-10T11:44:17.073Z,49.60
2018-08-10T11:45:17.097Z,48.06
2018-08-10T11:46:17.125Z,47.96
2018-08-10T11:47:17.154Z,48.06
2018-08-10T11:48:17.172Z,48.25
2018-08-10T11:49:17.204Z,48.06
2018-08-10T11:50:17.233Z,48.83
2018-08-10T11:51:17.258Z,48.44
2018-08-10T11:52:17.280Z,47.77
2018-08-10T11:53:17.306Z,48.06
2018-08-10T11:54:17.332Z,48.06
2018-08-10T11:55:17.357Z,48.25
2018-08-10T11:56:17.388Z,48.16
2018-08-10T11:57:17.454Z,48.37
2018-08-10T11:58:17.443Z,47.21
2018-08-10T11:59:17.469Z,46.92
2018-08-10T12:00:17.495Z,46.92
2018-08-10T12:01:17.548Z,46.63
2018-08-10T12:02:17.544Z,47.11
2018-08-10T12:03:17.570Z,45.86
2018-08-10T12:04:17.596Z,45.76
2018-08-10T12:05:17.627Z,46.53
2018-08-10T12:06:17.773Z,46.44
2018-08-10T12:07:17.680Z,45.76
2018-08-10T12:08:17.708Z,45.28
2018-08-10T12:09:17.755Z,46.25
2018-08-10T12:10:17.767Z,46.05
2018-08-10T12:11:17.782Z,46.56
2018-08-10T12:12:17.813Z,45.86
2018-08-10T12:13:17.847Z,45.95
2018-08-10T12:14:17.866Z,46.44
2018-08-10T12:15:17.910Z,46.34
2018-08-10T12:16:17.924Z,45.86
2018-08-10T12:17:17.949Z,45.78
2018-08-10T12:18:17.984Z,45.30
2018-08-10T12:19:17.996Z,44.98
2018-08-10T12:20:18.033Z,45.10
2018-08-10T12:21:18.059Z,45.78
2018-08-10T12:22:18.095Z,45.68
2018-08-10T12:23:18.113Z,45.59
2018-08-10T12:24:18.150Z,45.88
2018-08-10T12:25:18.163Z,45.59
2018-08-10T12:26:18.188Z,45.49
2018-08-10T12:27:18.216Z,45.01
2018-08-10T12:28:18.248Z,44.53
2018-08-10T12:29:18.271Z,44.23
2018-08-10T12:30:18.341Z,45.01
2018-08-10T12:31:18.325Z,45.30
2018-08-10T12:32:18.347Z,43.65
2018-08-10T12:33:18.391Z,44.13
2018-08-10T12:34:18.411Z,44.13
2018-08-10T12:35:18.436Z,43.75
2018-08-10T12:36:18.471Z,43.17
2018-08-10T12:37:18.488Z,43.17
2018-08-10T12:38:18.522Z,42.88
2018-08-10T12:39:18.544Z,42.88
2018-08-10T12:40:18.609Z,42.30
2018-08-10T12:41:18.598Z,42.68
2018-08-10T12:42:18.634Z,43.17
2018-08-10T12:43:18.658Z,43.27
2018-08-10T12:44:18.675Z,43.27
2018-08-10T12:45:18.701Z,43.65
2018-08-10T12:46:18.751Z,43.85
2018-08-10T12:47:18.778Z,43.58
2018-08-10T12:48:18.788Z,43.46
2018-08-10T12:49:18.813Z,43.55
2018-08-10T12:50:18.861Z,42.97
2018-08-10T12:51:18.864Z,42.97
2018-08-10T12:52:18.888Z,42.88
2018-08-10T12:53:18.938Z,42.59
2018-08-10T12:54:18.947Z,42.97
2018-08-10T12:55:18.975Z,43.17
2018-08-10T12:56:19.031Z,43.37
2018-08-10T12:57:19.046Z,43.29
2018-08-10T12:58:19.062Z,42.88
2018-08-10T12:59:19.097Z,43.27
2018-08-10T13:00:19.123Z,43.19
2018-08-10T13:01:19.161Z,43.00
2018-08-10T13:02:19.191Z,43.09
2018-08-10T13:03:19.242Z,42.51
2018-08-10T13:04:19.230Z,41.06
2018-08-10T13:05:19.244Z,40.36
2018-08-10T13:06:19.276Z,40.48
2018-08-10T13:07:19.297Z,41.91
2018-08-10T13:08:19.330Z,42.49
2018-08-10T13:09:19.353Z,41.24
2018-08-10T13:10:19.380Z,41.16